Time;durP1;ratioP1;P1;durP2;ratioP2;P2;SDS_P1;SDS_P2;PMS_P1;PMS_P2;Temp;Humidity;BMP_temperature;BMP_pressure;BME280_temperature;BME280_humidity;BME280_pressure;Samples;Min_cycle;Max_cycle;Signal;HPM_P1;HPM_P2
2022/10/02 00:00:36;;;;;;;0.50;0.50;;;11.00;99.90;;;;;;5073482;28;20466;-75
2022/10/02 00:03:28;;;;;;;0.40;0.40;;;11.10;99.90;;;;;;5072127;28;20477;-74
2022/10/02 00:06:21;;;;;;;0.50;0.50;;;11.00;99.90;;;;;;5073406;28;20552;-75
2022/10/02 00:09:20;;;;;;;1.73;1.67;;;10.90;99.90;;;;;;5071412;28;20424;-74
2022/10/02 00:12:11;;;;;;;0.40;0.40;;;10.80;99.90;;;;;;5072297;28;20461;-74
2022/10/02 00:15:06;;;;;;;0.50;0.50;;;10.70;99.90;;;;;;5111549;23;20577;-70
2022/10/02 00:18:01;;;;;;;0.40;0.40;;;10.70;99.90;;;;;;5094880;28;20980;-69
2022/10/02 00:20:57;;;;;;;0.40;0.40;;;10.60;99.90;;;;;;5095889;28;20450;-69
2022/10/02 00:23:51;;;;;;;0.40;0.40;;;10.50;99.90;;;;;;5099217;28;20446;-69
2022/10/02 00:26:46;;;;;;;0.40;0.40;;;10.50;99.90;;;;;;5111234;28;20486;-72
2022/10/02 00:29:45;;;;;;;0.40;0.40;;;10.50;99.90;;;;;;5111082;28;20423;-69
2022/10/02 00:32:41;;;;;;;0.40;0.40;;;10.40;99.90;;;;;;5111154;28;20514;-70
2022/10/02 00:35:48;;;;;;;0.40;0.40;;;10.40;99.90;;;;;;5110985;28;20424;-70
2022/10/02 00:38:51;;;;;;;0.40;0.40;;;10.40;99.90;;;;;;5111426;28;20430;-69
2022/10/02 00:42:08;;;;;;;0.50;0.50;;;10.40;99.90;;;;;;5109612;28;20430;-70
2022/10/02 00:45:45;;;;;;;0.40;0.40;;;10.30;99.90;;;;;;5109153;28;20446;-69
2022/10/02 00:48:46;;;;;;;0.40;0.40;;;10.40;99.90;;;;;;5001471;28;20950;-69
2022/10/02 00:51:46;;;;;;;0.40;0.40;;;10.40;99.90;;;;;;5094603;28;20571;-69
2022/10/02 00:55:20;;;;;;;0.40;0.40;;;10.40;99.90;;;;;;5091886;28;20876;-69
2022/10/02 00:58:34;;;;;;;0.40;0.40;;;10.40;99.90;;;;;;5060046;28;20478;-71
2022/10/02 01:01:28;;;;;;;0.40;0.40;;;10.30;99.90;;;;;;5092444;28;20499;-70
2022/10/02 01:04:22;;;;;;;0.60;0.60;;;10.30;99.90;;;;;;5091658;28;20529;-70
2022/10/02 01:07:14;;;;;;;0.60;0.60;;;10.30;99.90;;;;;;5099721;28;20533;-69
2022/10/02 01:10:02;;;;;;;0.40;0.40;;;10.30;99.90;;;;;;5103298;28;20867;-68
2022/10/02 01:12:51;;;;;;;0.40;0.40;;;10.30;99.90;;;;;;5104471;28;20422;-71
2022/10/02 01:15:45;;;;;;;0.40;0.40;;;10.20;99.90;;;;;;5105730;28;20503;-71
2022/10/02 01:18:33;;;;;;;0.40;0.40;;;10.20;99.90;;;;;;5102599;28;20835;-70
2022/10/02 01:21:31;;;;;;;0.40;0.40;;;10.20;99.90;;;;;;5103545;28;20934;-69
2022/10/02 01:24:24;;;;;;;0.40;0.40;;;10.20;99.90;;;;;;5100397;28;20549;-70
2022/10/02 01:27:14;;;;;;;0.60;0.60;;;10.10;99.90;;;;;;5095463;28;20529;-68
2022/10/02 01:30:05;;;;;;;0.40;0.40;;;10.10;99.90;;;;;;5081751;28;20433;-69
2022/10/02 01:32:56;;;;;;;0.40;0.40;;;10.00;99.90;;;;;;5080964;28;20431;-70
2022/10/02 01:35:45;;;;;;;0.40;0.40;;;10.00;99.90;;;;;;5082341;28;20419;-69
2022/10/02 01:38:34;;;;;;;0.50;0.50;;;9.90;99.90;;;;;;5081055;28;20423;-69
2022/10/02 01:41:23;;;;;;;0.40;0.40;;;9.90;99.90;;;;;;5077208;28;20496;-69
2022/10/02 01:44:15;;;;;;;0.40;0.40;;;9.90;99.90;;;;;;5075606;28;20443;-69
2022/10/02 01:47:07;;;;;;;0.40;0.40;;;9.80;99.90;;;;;;5083307;28;20531;-70
2022/10/02 01:50:09;;;;;;;0.40;0.40;;;9.80;99.90;;;;;;5099186;28;20453;-69
2022/10/02 01:53:08;;;;;;;0.40;0.40;;;9.80;99.90;;;;;;5099627;28;20417;-70
2022/10/02 01:56:06;;;;;;;0.40;0.40;;;9.80;99.90;;;;;;5103955;28;20458;-69
2022/10/02 01:59:00;;;;;;;0.40;0.40;;;9.80;99.90;;;;;;5097888;28;21025;-73
2022/10/02 02:01:58;;;;;;;0.40;0.40;;;9.70;99.90;;;;;;5114494;28;20445;-70
2022/10/02 02:04:54;;;;;;;0.50;0.50;;;9.70;99.90;;;;;;5108375;28;20876;-70
2022/10/02 02:07:49;;;;;;;0.40;0.40;;;9.80;99.90;;;;;;5095678;28;20524;-71
2022/10/02 02:10:52;;;;;;;0.40;0.40;;;9.70;99.90;;;;;;5094690;28;20513;-69
2022/10/02 02:13:47;;;;;;;0.40;0.40;;;9.70;99.90;;;;;;5094575;28;20857;-69
2022/10/02 02:16:41;;;;;;;0.40;0.40;;;9.70;99.90;;;;;;5095039;28;20446;-70
2022/10/02 02:19:35;;;;;;;0.40;0.40;;;9.70;99.90;;;;;;5094628;28;20422;-69
2022/10/02 02:22:27;;;;;;;0.40;0.40;;;9.70;99.90;;;;;;5095828;28;20418;-70
2022/10/02 02:25:18;;;;;;;0.40;0.40;;;9.70;99.90;;;;;;5095707;28;20970;-69
2022/10/02 02:28:11;;;;;;;0.47;0.47;;;9.90;99.90;;;;;;5080824;28;20525;-70
2022/10/02 02:31:01;;;;;;;0.40;0.40;;;9.90;99.90;;;;;;5073387;28;20502;-70
2022/10/02 02:33:54;;;;;;;0.40;0.40;;;10.00;99.90;;;;;;5073800;28;20450;-69
2022/10/02 02:36:47;;;;;;;0.40;0.40;;;10.10;99.90;;;;;;5073492;28;20832;-70
2022/10/02 02:39:41;;;;;;;0.40;0.40;;;10.20;99.90;;;;;;5074744;28;20419;-71
2022/10/02 02:42:32;;;;;;;1.23;1.13;;;10.20;99.90;;;;;;5072992;28;20424;-70
2022/10/02 02:45:24;;;;;;;0.40;0.40;;;10.30;99.90;;;;;;5073119;28;20935;-69
2022/10/02 02:48:17;;;;;;;0.40;0.40;;;10.20;99.90;;;;;;5074107;28;21015;-70
2022/10/02 02:51:10;;;;;;;0.40;0.40;;;10.20;99.90;;;;;;5074124;28;20950;-70
2022/10/02 02:54:04;;;;;;;0.40;0.40;;;10.20;99.90;;;;;;5073051;28;20941;-70
2022/10/02 02:56:54;;;;;;;0.50;0.50;;;10.10;99.90;;;;;;5072025;28;20512;-69
2022/10/02 02:59:46;;;;;;;0.40;0.40;;;10.10;99.90;;;;;;5072427;28;20451;-69
2022/10/02 03:02:34;;;;;;;0.40;0.40;;;10.00;99.90;;;;;;5071443;28;20459;-70
2022/10/02 03:05:24;;;;;;;0.40;0.40;;;10.10;99.90;;;;;;5072466;28;21013;-70
2022/10/02 03:08:21;;;;;;;0.40;0.40;;;10.10;99.90;;;;;;5072556;28;20614;-70
2022/10/02 03:11:21;;;;;;;0.40;0.40;;;10.20;99.90;;;;;;5072627;28;20870;-69
2022/10/02 03:14:27;;;;;;;0.40;0.40;;;10.30;99.90;;;;;;5071944;28;20836;-69
2022/10/02 03:17:28;;;;;;;0.40;0.40;;;10.20;99.90;;;;;;5072331;28;20427;-69
2022/10/02 03:20:26;;;;;;;0.40;0.40;;;10.20;99.90;;;;;;5073622;28;21089;-70
2022/10/02 03:23:22;;;;;;;0.40;0.40;;;10.20;99.90;;;;;;5073302;28;20419;-69
2022/10/02 03:26:17;;;;;;;0.40;0.40;;;10.20;99.90;;;;;;5072753;28;20882;-69
2022/10/02 03:29:13;;;;;;;7.83;0.80;;;10.10;99.90;;;;;;5073989;28;20542;-69
2022/10/02 03:32:05;;;;;;;0.40;0.40;;;10.20;99.90;;;;;;5072398;28;20510;-69
2022/10/02 03:34:55;;;;;;;0.40;0.40;;;10.20;99.90;;;;;;5073378;28;20599;-69
2022/10/02 03:37:47;;;;;;;0.40;0.40;;;10.30;99.90;;;;;;5072947;28;20419;-69
2022/10/02 03:40:35;;;;;;;0.40;0.40;;;10.40;99.90;;;;;;5073610;28;20920;-69
2022/10/02 03:43:27;;;;;;;0.40;0.40;;;10.50;99.90;;;;;;5072050;28;20990;-70
2022/10/02 03:46:15;;;;;;;0.40;0.40;;;10.60;99.90;;;;;;5071694;28;20419;-70
2022/10/02 03:49:03;;;;;;;0.40;0.40;;;10.60;99.90;;;;;;5071479;28;20461;-72
2022/10/02 03:51:51;;;;;;;0.40;0.40;;;10.60;99.90;;;;;;5083290;28;21088;-69
2022/10/02 03:54:39;;;;;;;0.40;0.40;;;10.60;99.90;;;;;;5092052;28;21108;-69
2022/10/02 03:57:33;;;;;;;0.93;0.93;;;10.50;99.90;;;;;;5092801;28;20468;-69
2022/10/02 04:00:27;;;;;;;0.40;0.40;;;10.60;99.90;;;;;;5091478;28;20816;-69
2022/10/02 04:03:21;;;;;;;0.40;0.40;;;10.60;99.90;;;;;;5092158;28;21015;-69
2022/10/02 04:06:14;;;;;;;0.40;0.40;;;10.70;99.90;;;;;;5092149;28;20433;-69
2022/10/02 04:09:09;;;;;;;0.40;0.40;;;10.70;99.90;;;;;;5092065;28;20546;-69
2022/10/02 04:12:01;;;;;;;0.40;0.40;;;10.80;99.90;;;;;;5093556;28;20509;-69
2022/10/02 04:14:54;;;;;;;0.40;0.40;;;10.80;99.90;;;;;;5093354;28;21017;-69
2022/10/02 04:17:48;;;;;;;0.40;0.40;;;10.90;99.90;;;;;;5093608;28;20419;-69
2022/10/02 04:20:42;;;;;;;0.40;0.40;;;11.00;99.90;;;;;;5093292;28;20422;-69
2022/10/02 04:23:33;;;;;;;0.40;0.40;;;11.00;99.90;;;;;;5093534;28;20968;-72
2022/10/02 04:26:25;;;;;;;0.40;0.40;;;11.10;99.90;;;;;;5093025;28;20560;-69
2022/10/02 04:29:20;;;;;;;0.47;0.47;;;11.10;99.90;;;;;;5071920;28;20467;-69
2022/10/02 04:32:14;;;;;;;0.67;0.67;;;11.20;99.90;;;;;;5071975;28;20522;-70
2022/10/02 04:35:09;;;;;;;0.40;0.40;;;11.20;99.90;;;;;;5071148;28;20538;-70
2022/10/02 04:38:17;;;;;;;0.40;0.40;;;11.20;99.90;;;;;;5072695;28;20423;-69
2022/10/02 04:41:24;;;;;;;0.40;0.40;;;11.20;99.90;;;;;;5072026;28;20427;-70
2022/10/02 04:44:23;;;;;;;0.40;0.40;;;11.20;99.90;;;;;;5075326;28;20486;-69
2022/10/02 04:47:30;;;;;;;0.40;0.40;;;11.20;99.90;;;;;;5075146;28;20419;-70
2022/10/02 04:50:37;;;;;;;0.40;0.40;;;11.20;99.90;;;;;;5075847;28;20426;-69
2022/10/02 04:53:45;;;;;;;0.40;0.40;;;11.20;99.90;;;;;;5075638;28;20584;-69
2022/10/02 04:56:46;;;;;;;2.73;0.67;;;11.30;99.90;;;;;;5074071;28;20914;-69
2022/10/02 05:00:00;;;;;;;0.50;0.50;;;11.30;99.90;;;;;;5075094;28;20465;-69
2022/10/02 05:03:06;;;;;;;0.47;0.47;;;11.40;99.90;;;;;;5074660;28;20514;-69
2022/10/02 05:06:17;;;;;;;0.40;0.40;;;11.30;99.90;;;;;;5075983;28;20427;-69
2022/10/02 05:09:15;;;;;;;0.50;0.50;;;11.30;99.90;;;;;;5075957;28;20881;-69
2022/10/02 05:12:38;;;;;;;0.40;0.40;;;11.30;99.90;;;;;;5074696;28;20485;-69
2022/10/02 05:15:44;;;;;;;0.80;0.80;;;11.30;99.90;;;;;;5074921;28;20454;-69
2022/10/02 05:18:48;;;;;;;0.40;0.40;;;11.30;99.90;;;;;;5075024;28;20419;-69
2022/10/02 05:21:55;;;;;;;0.40;0.40;;;11.30;99.90;;;;;;5075478;28;20431;-69
2022/10/02 05:24:50;;;;;;;0.47;0.47;;;11.40;99.90;;;;;;5074934;28;20459;-70
2022/10/02 05:28:06;;;;;;;0.70;0.50;;;11.40;99.90;;;;;;5085889;28;20437;-69
2022/10/02 05:31:06;;;;;;;0.40;0.40;;;11.50;99.90;;;;;;5095458;28;20532;-70
2022/10/02 05:34:16;;;;;;;0.40;0.40;;;11.50;99.90;;;;;;5094389;28;20499;-69
2022/10/02 05:37:23;;;;;;;0.40;0.40;;;11.70;99.90;;;;;;5094300;28;20517;-70
2022/10/02 05:40:24;;;;;;;0.40;0.40;;;11.70;99.90;;;;;;5094972;28;20828;-69
2022/10/02 05:43:18;;;;;;;0.40;0.40;;;11.80;99.90;;;;;;5094445;28;20513;-69
2022/10/02 05:46:12;;;;;;;0.40;0.40;;;11.80;99.90;;;;;;5095429;28;20965;-69
2022/10/02 05:49:09;;;;;;;0.40;0.40;;;11.80;99.90;;;;;;5099611;28;20469;-71
2022/10/02 05:52:00;;;;;;;0.40;0.40;;;11.80;99.90;;;;;;5114693;28;20897;-70
2022/10/02 05:54:55;;;;;;;0.40;0.40;;;11.80;99.90;;;;;;5108925;28;20438;-69
2022/10/02 05:57:47;;;;;;;0.43;0.43;;;11.80;99.90;;;;;;5094616;28;20896;-70
2022/10/02 06:00:40;;;;;;;0.40;0.40;;;11.70;99.90;;;;;;5093573;28;20433;-70
2022/10/02 06:03:34;;;;;;;0.40;0.40;;;11.70;99.90;;;;;;5094611;28;20464;-69
2022/10/02 06:06:29;;;;;;;0.50;0.50;;;11.70;99.90;;;;;;5095895;28;20472;-69
2022/10/02 06:09:20;;;;;;;0.40;0.40;;;11.60;99.90;;;;;;5095222;28;20462;-70
2022/10/02 06:12:14;;;;;;;0.40;0.40;;;11.60;99.90;;;;;;5095634;28;20419;-70
2022/10/02 06:15:07;;;;;;;0.40;0.40;;;11.50;99.90;;;;;;5114566;22;20632;-71
2022/10/02 06:18:01;;;;;;;0.40;0.40;;;11.50;99.90;;;;;;5094653;28;20528;-73
2022/10/02 06:20:54;;;;;;;0.40;0.40;;;11.50;99.90;;;;;;5094581;28;20476;-71
2022/10/02 06:23:46;;;;;;;0.40;0.40;;;11.60;99.90;;;;;;5094585;28;20426;-73
2022/10/02 06:26:41;;;;;;;0.40;0.40;;;11.60;99.90;;;;;;5093347;28;20410;-73
2022/10/02 06:29:39;;;;;;;0.40;0.40;;;11.70;99.90;;;;;;5092743;28;20450;-75
2022/10/02 06:32:33;;;;;;;0.40;0.40;;;11.90;99.90;;;;;;5094712;28;20435;-75
2022/10/02 06:35:38;;;;;;;0.40;0.40;;;12.00;99.90;;;;;;5093028;28;20600;-73
2022/10/02 06:38:40;;;;;;;0.40;0.40;;;12.10;99.90;;;;;;5093030;28;20938;-72
2022/10/02 06:41:38;;;;;;;0.40;0.40;;;12.20;99.90;;;;;;5092919;28;20464;-72
2022/10/02 06:44:38;;;;;;;0.40;0.40;;;12.20;99.90;;;;;;5095159;28;21051;-73
2022/10/02 06:47:53;;;;;;;0.50;0.50;;;12.20;99.90;;;;;;5093530;28;20433;-73
2022/10/02 06:50:51;;;;;;;0.40;0.40;;;12.20;99.90;;;;;;5093821;28;20879;-74
2022/10/02 06:53:53;;;;;;;0.50;0.50;;;12.10;99.90;;;;;;5095288;28;20426;-72
2022/10/02 06:56:57;;;;;;;0.40;0.40;;;12.00;99.90;;;;;;5095336;28;20949;-73
2022/10/02 07:00:04;;;;;;;0.40;0.40;;;12.00;99.90;;;;;;5093551;28;20505;-74
2022/10/02 07:03:26;;;;;;;0.40;0.40;;;11.90;99.90;;;;;;5094931;28;20454;-75
2022/10/02 07:06:25;;;;;;;0.40;0.40;;;12.00;99.90;;;;;;5092395;28;20422;-72
2022/10/02 07:13:34;;;;;;;0.47;0.47;;;12.00;99.90;;;;;;5088599;28;20529;-73
2022/10/02 07:20:37;;;;;;;0.60;0.60;;;12.20;99.90;;;;;;5085219;28;20438;-75
2022/10/02 07:23:47;;;;;;;0.40;0.40;;;12.30;99.90;;;;;;5094103;28;20766;-73
2022/10/02 07:26:46;;;;;;;1.07;1.07;;;12.40;99.90;;;;;;5092064;28;20423;-74
2022/10/02 07:29:46;;;;;;;2.73;1.20;;;12.50;99.90;;;;;;5073120;28;20471;-73
2022/10/02 07:32:47;;;;;;;0.40;0.40;;;12.60;99.90;;;;;;5072058;28;20840;-75
2022/10/02 07:35:44;;;;;;;0.40;0.40;;;12.80;99.90;;;;;;5072567;28;20442;-72
2022/10/02 07:38:55;;;;;;;4.13;0.83;;;12.90;99.90;;;;;;5072633;28;20553;-73
2022/10/02 07:42:08;;;;;;;1.43;0.90;;;13.00;99.90;;;;;;5072872;28;20464;-73
2022/10/02 07:45:20;;;;;;;0.40;0.40;;;13.20;99.90;;;;;;5073501;28;21037;-71
2022/10/02 07:48:24;;;;;;;0.53;0.53;;;13.30;99.90;;;;;;5073565;28;21072;-73
2022/10/02 07:54:47;;;;;;;0.50;0.50;;;13.60;99.90;;;;;;5071899;28;20549;-72
2022/10/02 07:57:42;;;;;;;3.47;3.23;;;13.80;99.90;;;;;;5072578;28;20419;-72
2022/10/02 08:00:34;;;;;;;2.40;1.73;;;14.10;99.90;;;;;;5072950;28;20562;-73
2022/10/02 08:03:25;;;;;;;1.80;1.80;;;14.20;99.90;;;;;;5072997;28;20465;-72
2022/10/02 08:06:15;;;;;;;0.80;0.80;;;14.20;99.90;;;;;;5073584;28;20988;-72
2022/10/02 08:09:11;;;;;;;2.63;0.57;;;14.30;99.90;;;;;;5073558;28;20517;-75
2022/10/02 08:12:03;;;;;;;0.50;0.50;;;14.30;99.90;;;;;;5074004;28;20457;-73
2022/10/02 08:14:54;;;;;;;0.73;0.73;;;14.40;99.90;;;;;;5073348;28;20538;-75
2022/10/02 08:17:48;;;;;;;0.47;0.47;;;14.40;99.90;;;;;;5075336;28;20513;-73
2022/10/02 08:20:39;;;;;;;1.77;1.60;;;14.60;99.90;;;;;;5076692;28;20923;-71
2022/10/02 08:23:32;;;;;;;3.73;2.10;;;14.90;99.90;;;;;;5076848;28;20447;-73
2022/10/02 08:26:28;;;;;;;1.63;1.33;;;14.90;99.90;;;;;;5077436;28;20518;-72
2022/10/02 08:29:27;;;;;;;0.70;0.70;;;15.10;99.90;;;;;;5097349;28;20426;-72
2022/10/02 08:32:15;;;;;;;0.50;0.50;;;15.30;99.90;;;;;;5097886;28;20422;-74
2022/10/02 08:35:11;;;;;;;0.50;0.50;;;15.50;99.90;;;;;;5097141;28;20470;-74
2022/10/02 08:38:12;;;;;;;1.17;0.97;;;15.70;99.90;;;;;;5095504;28;20509;-72
2022/10/02 08:41:55;;;;;;;0.40;0.40;;;15.80;99.90;;;;;;5096724;28;20456;-72
2022/10/02 08:45:20;;;;;;;1.57;1.00;;;15.80;99.90;;;;;;5096679;28;20596;-73
2022/10/02 08:48:48;;;;;;;0.40;0.40;;;16.00;99.90;;;;;;5095877;28;20191;-74
2022/10/02 08:52:10;;;;;;;3.90;1.07;;;16.10;99.90;;;;;;5096762;28;20453;-73
2022/10/02 08:55:24;;;;;;;1.73;1.50;;;15.90;99.90;;;;;;5086059;28;20235;-73
2022/10/02 08:58:46;;;;;;;0.57;0.57;;;15.80;99.90;;;;;;5097366;28;20576;-71
2022/10/02 09:02:08;;;;;;;0.40;0.40;;;15.70;99.90;;;;;;5095720;28;20422;-74
2022/10/02 09:05:28;;;;;;;2.00;0.77;;;15.70;99.90;;;;;;5094052;28;20453;-73
2022/10/02 09:08:56;;;;;;;0.60;0.60;;;15.60;99.90;;;;;;5095650;28;20200;-73
2022/10/02 09:12:15;;;;;;;0.50;0.50;;;15.50;99.90;;;;;;5095826;28;20250;-76
2022/10/02 09:15:15;;;;;;;4.73;0.97;;;15.30;99.90;;;;;;5082507;28;20698;-72
2022/10/02 09:18:19;;;;;;;1.90;1.60;;;15.20;99.90;;;;;;5076182;28;20453;-73
2022/10/02 09:21:18;;;;;;;0.70;0.70;;;15.10;99.90;;;;;;5096822;28;20517;-73
2022/10/02 09:24:58;;;;;;;0.40;0.40;;;15.10;99.90;;;;;;5095241;28;20495;-71
2022/10/02 09:28:30;;;;;;;0.40;0.40;;;15.20;99.90;;;;;;4995352;28;20520;-73
2022/10/02 09:31:57;;;;;;;0.80;0.70;;;15.40;99.90;;;;;;5006122;28;20479;-74
2022/10/02 09:35:14;;;;;;;1.03;0.53;;;15.40;99.90;;;;;;5074703;28;20450;-71
2022/10/02 09:38:34;;;;;;;0.40;0.40;;;15.50;99.90;;;;;;5074472;28;20416;-72
2022/10/02 09:42:18;;;;;;;0.40;0.40;;;15.80;99.90;;;;;;5073856;28;20427;-73
2022/10/02 09:45:39;;;;;;;0.80;0.80;;;16.40;99.90;;;;;;5073731;28;20223;-74
2022/10/02 09:49:08;;;;;;;4.40;1.80;;;17.00;99.90;;;;;;5074170;28;20201;-73
2022/10/02 09:52:49;;;;;;;0.93;0.57;;;17.10;99.90;;;;;;5072939;28;20696;-73
2022/10/02 09:55:58;;;;;;;1.00;0.90;;;17.20;99.90;;;;;;5074544;28;20607;-77
2022/10/02 09:59:23;;;;;;;0.50;0.50;;;17.10;99.90;;;;;;5074781;28;20279;-74
2022/10/02 10:02:45;;;;;;;0.80;0.73;;;16.70;99.90;;;;;;5074474;28;20282;-73
2022/10/02 10:06:04;;;;;;;0.40;0.40;;;15.70;99.90;;;;;;5057284;28;20227;-72
2022/10/02 10:09:25;;;;;;;1.70;0.90;;;14.60;99.90;;;;;;5073011;28;20484;-71
2022/10/02 10:12:55;;;;;;;0.80;0.80;;;14.20;99.90;;;;;;5074461;28;20494;-71
2022/10/02 10:16:28;;;;;;;0.90;0.80;;;13.90;99.90;;;;;;5075319;28;20513;-73
2022/10/02 10:19:58;;;;;;;0.50;0.50;;;13.60;99.90;;;;;;5073776;28;20427;-74
2022/10/02 10:23:04;;;;;;;1.60;1.50;;;13.50;99.90;;;;;;4973273;28;20518;-71
2022/10/02 10:26:13;;;;;;;0.63;0.50;;;13.50;99.90;;;;;;5073361;28;20522;-71
2022/10/02 10:29:39;;;;;;;1.00;0.87;;;13.50;99.90;;;;;;5073420;28;20419;-73
2022/10/02 10:33:02;;;;;;;1.10;1.07;;;13.60;99.90;;;;;;5072815;28;20906;-72
2022/10/02 10:40:03;;;;;;;0.70;0.70;;;13.60;99.90;;;;;;5073194;28;20419;-74
2022/10/02 10:43:15;;;;;;;0.40;0.40;;;13.60;99.90;;;;;;5073102;28;20438;-72
2022/10/02 10:46:28;;;;;;;0.40;0.40;;;14.00;99.90;;;;;;5073614;28;20431;-72
2022/10/02 10:49:34;;;;;;;1.30;1.20;;;14.40;99.90;;;;;;5075014;28;20476;-73
2022/10/02 10:52:40;;;;;;;1.13;0.67;;;14.50;99.90;;;;;;5073020;28;20459;-71
2022/10/02 10:55:45;;;;;;;0.50;0.50;;;14.60;99.90;;;;;;5073796;28;20475;-71
2022/10/02 10:58:51;;;;;;;0.40;0.40;;;14.80;99.90;;;;;;5072780;28;20516;-73
2022/10/02 11:01:53;;;;;;;0.40;0.40;;;14.80;99.90;;;;;;5073559;28;20466;-72
2022/10/02 11:04:58;;;;;;;0.73;0.70;;;14.40;99.90;;;;;;5072874;28;20442;-71
2022/10/02 11:08:09;;;;;;;1.03;1.03;;;14.30;99.90;;;;;;5072858;28;20502;-74
2022/10/02 11:11:06;;;;;;;0.40;0.40;;;14.10;99.90;;;;;;5072569;28;20494;-74
2022/10/02 11:14:11;;;;;;;0.50;0.50;;;14.10;99.90;;;;;;5072769;28;20455;-71
2022/10/02 11:17:30;;;;;;;0.40;0.40;;;14.10;99.90;;;;;;5072878;28;20472;-73
2022/10/02 11:20:43;;;;;;;1.77;1.67;;;14.00;99.90;;;;;;5072709;28;20455;-72
2022/10/02 11:24:13;;;;;;;0.40;0.40;;;14.10;99.90;;;;;;5072329;28;20863;-72
2022/10/02 11:27:30;;;;;;;2.67;1.33;;;14.10;99.90;;;;;;5078377;28;20495;-73
2022/10/02 11:30:23;;;;;;;3.63;0.80;;;14.10;99.90;;;;;;5093868;28;20870;-73
2022/10/02 11:33:39;;;;;;;0.57;0.57;;;14.40;99.90;;;;;;5091906;28;20513;-74
2022/10/02 11:36:51;;;;;;;0.50;0.50;;;14.80;99.90;;;;;;5092726;28;20472;-72
2022/10/02 11:40:28;;;;;;;0.40;0.40;;;15.20;99.90;;;;;;5092691;28;20555;-73
2022/10/02 11:43:37;;;;;;;2.20;1.07;;;15.40;99.90;;;;;;4990871;28;20534;-74
2022/10/02 11:46:47;;;;;;;1.27;0.87;;;15.10;99.90;;;;;;5093564;28;20484;-71
2022/10/02 11:50:09;;;;;;;3.70;1.67;;;14.90;99.90;;;;;;5092488;28;20421;-77
2022/10/02 11:53:33;;;;;;;2.57;1.57;;;14.80;99.90;;;;;;5048355;28;20562;-72
2022/10/02 11:56:44;;;;;;;3.17;2.07;;;14.40;99.90;;;;;;5071607;28;20529;-73
2022/10/02 12:00:02;;;;;;;2.13;1.30;;;14.10;99.90;;;;;;5092348;28;20524;-72
2022/10/02 12:02:58;;;;;;;1.93;1.40;;;14.00;99.90;;;;;;5093852;28;20449;-74
2022/10/02 12:05:55;;;;;;;1.30;1.03;;;13.90;99.90;;;;;;5092238;28;20454;-72
2022/10/02 12:08:54;;;;;;;1.70;1.50;;;13.90;99.90;;;;;;5092371;28;20414;-71
2022/10/02 12:11:49;;;;;;;2.67;1.43;;;14.00;99.90;;;;;;5092125;28;21064;-74
2022/10/02 12:14:47;;;;;;;7.20;1.43;;;14.30;99.90;;;;;;5106601;22;20514;-69
2022/10/02 12:17:52;;;;;;;0.50;0.50;;;14.30;99.90;;;;;;5093110;28;20418;-69
2022/10/02 12:27:43;;;;;;;1.23;0.90;;;14.90;99.90;;;;;;5091324;28;20950;-68
2022/10/02 12:30:39;;;;;;;1.23;0.57;;;15.10;99.90;;;;;;5091477;28;20426;-68
2022/10/02 12:33:39;;;;;;;1.47;0.80;;;15.50;99.90;;;;;;5093579;28;20433;-69
2022/10/02 12:36:40;;;;;;;0.63;0.63;;;15.70;99.90;;;;;;5091526;28;20519;-68
2022/10/02 12:39:41;;;;;;;0.40;0.40;;;15.90;99.90;;;;;;5091303;28;21090;-69
2022/10/02 12:42:48;;;;;;;0.50;0.50;;;15.90;99.90;;;;;;5093708;28;20430;-69
2022/10/02 12:46:03;;;;;;;0.80;0.80;;;15.80;99.90;;;;;;5092058;28;20324;-69
2022/10/02 12:49:11;;;;;;;1.90;1.80;;;15.80;99.90;;;;;;5093909;28;20430;-69
2022/10/02 12:52:22;;;;;;;0.60;0.60;;;15.80;99.90;;;;;;5092810;28;20215;-69
2022/10/02 12:55:43;;;;;;;0.87;0.67;;;15.90;99.90;;;;;;5091819;28;20538;-68
2022/10/02 12:58:41;;;;;;;0.40;0.40;;;16.20;99.90;;;;;;5089673;28;20442;-69
2022/10/02 13:02:09;;;;;;;1.13;1.00;;;16.50;99.90;;;;;;5091690;28;20196;-68
2022/10/02 13:05:31;;;;;;;0.73;0.73;;;16.80;99.90;;;;;;5094214;28;20250;-69
2022/10/02 13:09:03;;;;;;;0.80;0.70;;;16.60;99.90;;;;;;5095798;28;20867;-69
2022/10/02 13:12:04;;;;;;;3.73;1.07;;;16.50;99.90;;;;;;5053621;28;20257;-69
2022/10/02 13:15:10;;;;;;;0.50;0.50;;;16.30;99.90;;;;;;5094943;28;20497;-69
2022/10/02 13:18:13;;;;;;;0.97;0.73;;;16.30;99.90;;;;;;5095292;28;20449;-69
2022/10/02 13:21:10;;;;;;;0.70;0.50;;;16.20;99.90;;;;;;5094374;28;20913;-69
2022/10/02 13:24:14;;;;;;;0.50;0.50;;;16.00;99.90;;;;;;5096654;28;20437;-69
2022/10/02 13:27:15;;;;;;;0.70;0.60;;;16.00;99.90;;;;;;5090548;28;20423;-69
2022/10/02 13:30:15;;;;;;;0.70;0.70;;;16.10;99.90;;;;;;5075695;28;20514;-69
2022/10/02 13:33:25;;;;;;;0.40;0.40;;;16.10;99.90;;;;;;5075514;28;20658;-69
2022/10/02 13:36:24;;;;;;;0.87;0.50;;;16.20;99.90;;;;;;5073584;28;20208;-69
2022/10/02 13:39:31;;;;;;;0.70;0.60;;;16.20;99.90;;;;;;5074714;28;20442;-70
2022/10/02 13:42:35;;;;;;;0.40;0.40;;;15.80;99.90;;;;;;5074478;28;20517;-69
2022/10/02 13:45:31;;;;;;;0.70;0.70;;;15.20;99.90;;;;;;5074508;28;20463;-69
2022/10/02 13:48:30;;;;;;;0.70;0.50;;;14.90;99.90;;;;;;5074733;28;20431;-69
2022/10/02 13:51:27;;;;;;;0.40;0.40;;;14.90;99.90;;;;;;5074644;28;20454;-69
2022/10/02 13:54:29;;;;;;;0.40;0.40;;;14.70;99.90;;;;;;5075356;28;20208;-70
2022/10/02 13:57:34;;;;;;;0.40;0.40;;;14.60;99.90;;;;;;5073468;28;20881;-70
2022/10/02 14:00:40;;;;;;;0.40;0.40;;;14.50;99.90;;;;;;5074036;28;20886;-69
2022/10/02 14:03:47;;;;;;;0.47;0.47;;;14.40;99.90;;;;;;5075026;28;20419;-69
2022/10/02 14:06:42;;;;;;;0.40;0.40;;;14.40;99.90;;;;;;5073421;28;20802;-69
2022/10/02 14:09:49;;;;;;;0.40;0.40;;;14.30;99.90;;;;;;5074171;28;20536;-69
2022/10/02 14:12:49;;;;;;;0.40;0.40;;;14.90;99.90;;;;;;5073128;28;20958;-68
2022/10/02 14:15:49;;;;;;;0.97;0.40;;;17.30;99.90;;;;;;5072054;28;20498;-70
2022/10/02 14:19:03;;;;;;;0.40;0.40;;;18.30;99.90;;;;;;5073887;28;20280;-70
2022/10/02 14:22:01;;;;;;;0.77;0.70;;;20.40;99.90;;;;;;5074342;28;20427;-70
2022/10/02 14:25:03;;;;;;;0.40;0.40;;;21.10;99.90;;;;;;5073921;28;20728;-69
2022/10/02 14:28:01;;;;;;;0.40;0.40;;;21.60;99.90;;;;;;5086807;28;20204;-70
2022/10/02 14:31:13;;;;;;;0.40;0.40;;;22.50;99.90;;;;;;5093558;28;20200;-70
2022/10/02 14:34:28;;;;;;;0.40;0.40;;;21.40;99.90;;;;;;5093338;28;20684;-70
2022/10/02 14:37:44;;;;;;;1.20;1.10;;;21.20;99.90;;;;;;5095051;28;20206;-69
2022/10/02 14:40:44;;;;;;;0.40;0.40;;;19.60;99.90;;;;;;5094677;28;20227;-70
2022/10/02 14:44:04;;;;;;;0.40;0.40;;;18.40;99.90;;;;;;5093178;28;20317;-69
2022/10/02 14:47:03;;;;;;;0.40;0.40;;;17.90;99.90;;;;;;5092901;28;20690;-69
2022/10/02 14:50:31;;;;;;;1.88;0.50;;;17.60;99.90;;;;;;5091976;28;20281;-69
2022/10/02 14:54:01;;;;;;;0.40;0.40;;;17.70;99.90;;;;;;5093842;28;20216;-70
2022/10/02 14:57:28;;;;;;;0.40;0.40;;;17.30;99.90;;;;;;5092550;28;20731;-70
2022/10/02 15:00:19;;;;;;;0.40;0.40;;;16.70;99.90;;;;;;5057725;28;20346;-69
2022/10/02 15:03:51;;;;;;;0.40;0.40;;;16.30;99.90;;;;;;5094971;28;20212;-69
2022/10/02 15:07:04;;;;;;;0.80;0.80;;;15.90;99.90;;;;;;5097128;28;20203;-68
2022/10/02 15:10:01;;;;;;;0.40;0.40;;;15.70;99.90;;;;;;5096756;28;20196;-71
2022/10/02 15:12:54;;;;;;;0.50;0.50;;;15.50;99.90;;;;;;5100410;28;20220;-69
2022/10/02 15:17:53;;;;;;;0.50;0.40;;;15.40;99.90;;;;;;5096048;28;20458;-68
2022/10/02 15:19:08;;;;;;;0.40;0.40;;;15.30;99.90;;;;;;5095778;28;20208;-68
2022/10/02 15:22:00;;;;;;;1.13;0.50;;;15.30;99.90;;;;;;5094075;28;20200;-69
2022/10/02 15:24:56;;;;;;;0.60;0.60;;;15.20;99.90;;;;;;5091905;28;20438;-69
2022/10/02 15:27:51;;;;;;;0.40;0.40;;;15.10;99.90;;;;;;5079477;28;20432;-69
2022/10/02 15:30:46;;;;;;;0.40;0.40;;;15.10;99.90;;;;;;5071499;28;20427;-69
2022/10/02 15:33:39;;;;;;;0.40;0.40;;;15.10;99.90;;;;;;5071066;28;20950;-69
2022/10/02 15:36:43;;;;;;;0.67;0.50;;;14.90;99.90;;;;;;5073138;28;20445;-69
2022/10/02 15:39:52;;;;;;;0.40;0.40;;;14.80;99.90;;;;;;5071688;28;21005;-69
2022/10/02 15:42:49;;;;;;;0.40;0.40;;;14.80;99.90;;;;;;5071349;28;20512;-69
2022/10/02 15:45:59;;;;;;;0.40;0.40;;;14.80;99.90;;;;;;5071326;28;20934;-69
2022/10/02 15:49:00;;;;;;;3.40;0.60;;;14.80;99.90;;;;;;5074140;28;20920;-69
2022/10/02 15:52:00;;;;;;;0.40;0.40;;;14.70;99.90;;;;;;5073046;28;20692;-68
2022/10/02 15:54:56;;;;;;;0.40;0.40;;;14.50;99.90;;;;;;5072286;28;20587;-69
2022/10/02 15:58:02;;;;;;;0.40;0.40;;;14.50;99.90;;;;;;5072631;28;20459;-69
2022/10/02 16:01:11;;;;;;;0.40;0.40;;;14.50;99.90;;;;;;5071310;28;20443;-69
2022/10/02 16:04:07;;;;;;;0.80;0.80;;;14.40;99.90;;;;;;5072342;28;20199;-69
2022/10/02 16:07:27;;;;;;;0.50;0.40;;;14.40;99.90;;;;;;5073005;28;20434;-69
2022/10/02 16:10:24;;;;;;;0.40;0.40;;;14.30;99.90;;;;;;5071089;28;20434;-69
2022/10/02 16:13:31;;;;;;;0.50;0.50;;;14.30;99.90;;;;;;5072489;28;20818;-69
2022/10/02 16:16:33;;;;;;;0.40;0.40;;;14.10;99.90;;;;;;5070919;28;20573;-70